createdAt,value
2022-11-25T00:00:02.109Z,100464.73
2022-11-25T00:01:03.904Z,100457.80
2022-11-25T00:02:07.314Z,100466.45
2022-11-25T00:03:09.257Z,100463.85
2022-11-25T00:04:11.110Z,100461.27
2022-11-25T00:05:12.927Z,100457.77
2022-11-25T00:06:14.730Z,100461.20
2022-11-25T00:07:16.618Z,100454.31
2022-11-25T00:08:18.430Z,100453.41
2022-11-25T00:09:20.253Z,100457.77
2022-11-25T00:10:22.085Z,100454.33
2022-11-25T00:11:23.876Z,100456.06
2022-11-25T00:12:25.739Z,100453.49
2022-11-25T00:13:27.539Z,100459.59
2022-11-25T00:14:29.365Z,100437.94
2022-11-25T00:15:31.192Z,100449.22
2022-11-25T00:16:33.141Z,100438.81
2022-11-25T00:17:35.052Z,100450.03
2022-11-25T00:18:36.909Z,100442.23
2022-11-25T00:19:38.718Z,100450.87
2022-11-25T00:20:40.612Z,100447.42
2022-11-25T00:21:42.448Z,100456.94
2022-11-25T00:22:44.305Z,100459.50
2022-11-25T00:23:46.314Z,100458.61
2022-11-25T00:24:48.108Z,100459.52
2022-11-25T00:25:49.906Z,100463.80
2022-11-25T00:26:51.830Z,100455.16
2022-11-25T00:27:53.650Z,100454.29
2022-11-25T00:28:55.430Z,100457.77
2022-11-25T00:29:57.260Z,100446.55
2022-11-25T00:30:59.199Z,100448.30
2022-11-25T00:32:01.080Z,100450.89
2022-11-25T00:33:02.962Z,100437.94
2022-11-25T00:34:04.774Z,100444.88
2022-11-25T00:35:06.592Z,100436.27
2022-11-25T00:36:08.389Z,100436.30
2022-11-25T00:37:10.203Z,100433.75
2022-11-25T00:38:12.050Z,100435.50
2022-11-25T00:39:13.971Z,100439.81
2022-11-25T00:40:15.755Z,100434.64
2022-11-25T00:41:17.568Z,100437.23
2022-11-25T00:42:19.394Z,100437.25
2022-11-25T00:43:21.240Z,100439.01
2022-11-25T00:44:23.064Z,100439.02
2022-11-25T00:45:24.940Z,100439.05
2022-11-25T00:46:26.863Z,100441.66
2022-11-25T00:47:28.692Z,100442.52
2022-11-25T00:48:30.572Z,100445.12
2022-11-25T00:49:32.349Z,100441.70
2022-11-25T00:50:34.064Z,100442.61
2022-11-25T00:51:35.839Z,100449.55
2022-11-25T00:52:37.642Z,100453.03
2022-11-25T00:53:39.491Z,100442.62
2022-11-25T00:54:41.332Z,100443.50
2022-11-25T00:55:43.134Z,100442.66
2022-11-25T00:56:45.064Z,100443.50
2022-11-25T00:57:46.893Z,100442.65
2022-11-25T00:58:48.719Z,100446.95
2022-11-25T00:59:50.505Z,100439.14
2022-11-25T01:00:52.440Z,100441.73
2022-11-25T01:01:54.301Z,100442.61
2022-11-25T01:02:56.201Z,100438.27
2022-11-25T01:03:58.082Z,100440.02
2022-11-25T01:04:59.904Z,100441.72
2022-11-25T01:06:01.734Z,100434.77
2022-11-25T01:07:03.545Z,100435.60
2022-11-25T01:08:05.368Z,100426.05
2022-11-25T01:09:07.218Z,100427.78
2022-11-25T01:10:09.277Z,100425.16
2022-11-25T01:11:11.068Z,100429.45
2022-11-25T01:12:12.870Z,100431.17
2022-11-25T01:13:14.675Z,100420.73
2022-11-25T01:14:16.501Z,100425.88
2022-11-25T01:15:18.214Z,100414.56
2022-11-25T01:16:20.154Z,100419.73
2022-11-25T01:17:21.940Z,100421.45
2022-11-25T01:18:23.759Z,100419.70
2022-11-25T01:19:25.597Z,100435.25
2022-11-25T01:20:27.479Z,100430.05
2022-11-25T01:21:29.276Z,100426.57
2022-11-25T01:22:31.085Z,100439.55
2022-11-25T01:23:32.878Z,100448.17
2022-11-25T01:24:35.099Z,100449.05
2022-11-25T01:25:37.149Z,100447.27
2022-11-25T01:26:39.051Z,100451.60
2022-11-25T01:27:40.858Z,100449.87
2022-11-25T01:28:42.666Z,100448.98
2022-11-25T01:29:44.541Z,100448.06
2022-11-25T01:30:46.580Z,100448.88
2022-11-25T01:31:48.507Z,100454.92
2022-11-25T01:32:50.418Z,100451.41
2022-11-25T01:33:52.242Z,100445.33
2022-11-25T01:35:06.156Z,100450.47
2022-11-25T01:37:28.012Z,100451.27
2022-11-25T01:38:29.803Z,100450.45
2022-11-25T01:39:33.176Z,100450.45
2022-11-25T01:40:35.277Z,100447.86
2022-11-25T01:41:37.097Z,100449.55
2022-11-25T01:42:38.894Z,100448.64
2022-11-25T01:43:40.703Z,100451.19
2022-11-25T01:44:42.512Z,100453.78
2022-11-25T01:45:44.388Z,100456.38
2022-11-25T01:46:46.391Z,100462.31
2022-11-25T01:47:48.192Z,100455.34
2022-11-25T01:48:49.972Z,100455.30
2022-11-25T01:49:51.788Z,100467.37
2022-11-25T01:50:53.726Z,100456.11
2022-11-25T01:51:55.513Z,100454.41
2022-11-25T01:52:57.340Z,100455.32
2022-11-25T01:53:59.150Z,100459.64
2022-11-25T01:55:00.960Z,100461.34
2022-11-25T01:56:02.827Z,100456.98
2022-11-25T01:57:04.893Z,100450.09
2022-11-25T01:58:06.701Z,100449.20
2022-11-25T01:59:08.519Z,100462.19
2022-11-25T02:00:10.436Z,100455.28
2022-11-25T02:01:12.310Z,100449.20
2022-11-25T02:02:14.098Z,100453.50
2022-11-25T02:03:16.107Z,100448.31
2022-11-25T02:04:17.915Z,100443.16
2022-11-25T02:05:19.731Z,100449.17
2022-11-25T02:06:21.588Z,100443.95
2022-11-25T02:07:23.472Z,100443.95
2022-11-25T02:08:25.324Z,100440.47
2022-11-25T02:09:27.118Z,100443.92
2022-11-25T02:10:29.015Z,100441.30
2022-11-25T02:11:30.868Z,100434.39
2022-11-25T02:12:32.870Z,100440.45
2022-11-25T02:13:34.668Z,100437.83
2022-11-25T02:14:36.782Z,100434.32
2022-11-25T02:15:38.875Z,100437.81
2022-11-25T02:16:40.753Z,100437.83
2022-11-25T02:17:42.544Z,100438.65
2022-11-25T02:18:44.340Z,100436.08
2022-11-25T02:19:46.149Z,100434.37
2022-11-25T02:20:47.971Z,100434.39
2022-11-25T02:21:49.835Z,100432.73
2022-11-25T02:22:51.629Z,100429.28
2022-11-25T02:23:53.434Z,100445.70
2022-11-25T02:24:55.225Z,100439.70
2022-11-25T02:25:57.083Z,100437.94
2022-11-25T02:26:59.037Z,100433.59
2022-11-25T02:28:00.922Z,100437.00
2022-11-25T02:29:02.727Z,100444.84
2022-11-25T02:30:04.675Z,100441.38
2022-11-25T02:31:06.508Z,100439.66
2022-11-25T02:32:08.473Z,100445.70
2022-11-25T02:33:10.330Z,100445.72
2022-11-25T02:34:12.137Z,100450.05
2022-11-25T02:35:13.919Z,100443.08
2022-11-25T02:36:15.825Z,100452.56
2022-11-25T02:37:17.670Z,100444.76
2022-11-25T02:38:19.400Z,100457.72
2022-11-25T02:39:21.200Z,100452.53
2022-11-25T02:40:23.203Z,100456.00
2022-11-25T02:41:25.019Z,100453.39
2022-11-25T02:42:26.876Z,100453.34
2022-11-25T02:43:28.928Z,100458.52
2022-11-25T02:44:30.735Z,100456.75
2022-11-25T02:45:32.588Z,100459.34
2022-11-25T02:46:34.460Z,100461.05
2022-11-25T02:47:36.319Z,100459.30
2022-11-25T02:49:07.359Z,100463.64
2022-11-25T02:49:41.748Z,100457.58
2022-11-25T02:50:43.561Z,100449.78
2022-11-25T02:51:45.372Z,100454.99
2022-11-25T02:52:47.215Z,100452.45
2022-11-25T02:53:49.022Z,100451.59
2022-11-25T02:54:50.823Z,100452.42
2022-11-25T02:55:52.638Z,100442.91
2022-11-25T02:56:54.451Z,100444.58
2022-11-25T02:57:56.389Z,100443.72
2022-11-25T02:58:58.466Z,100433.33
2022-11-25T03:00:00.270Z,100442.88
2022-11-25T03:01:02.091Z,100438.58
2022-11-25T03:02:04.009Z,100436.82
2022-11-25T03:03:09.400Z,100437.74
2022-11-25T03:04:11.259Z,100427.39
2022-11-25T03:05:13.059Z,100429.98
2022-11-25T03:06:14.877Z,100429.14
2022-11-25T03:07:16.710Z,100432.63
2022-11-25T03:08:18.525Z,100433.48
2022-11-25T03:09:20.328Z,100437.83
2022-11-25T03:10:22.222Z,100430.09
2022-11-25T03:11:24.035Z,100434.41
2022-11-25T03:12:25.953Z,100439.70
2022-11-25T03:13:27.820Z,100445.77
2022-11-25T03:14:29.661Z,100448.42
2022-11-25T03:15:31.534Z,100447.61
2022-11-25T03:16:33.566Z,100444.12
2022-11-25T03:17:35.329Z,100444.19
2022-11-25T03:18:37.186Z,100449.41
2022-11-25T03:19:39.004Z,100448.59
2022-11-25T03:20:40.906Z,100446.89
2022-11-25T03:21:42.708Z,100452.92
2022-11-25T03:22:44.514Z,100451.14
2022-11-25T03:23:46.378Z,100458.92
2022-11-25T03:24:48.171Z,100461.52
2022-11-25T03:25:49.980Z,100460.68
2022-11-25T03:26:51.783Z,100454.63
2022-11-25T03:27:53.583Z,100452.03
2022-11-25T03:28:55.457Z,100455.52
2022-11-25T03:29:57.335Z,100459.02
2022-11-25T03:30:59.382Z,100455.60
2022-11-25T03:32:04.316Z,100456.48
2022-11-25T03:33:04.810Z,100459.12
2022-11-25T03:34:06.649Z,100463.42
2022-11-25T03:35:08.466Z,100462.55
2022-11-25T03:36:10.482Z,100466.02
2022-11-25T03:37:12.359Z,100464.30
2022-11-25T03:38:14.196Z,100459.12
2022-11-25T03:39:16.053Z,100452.20
2022-11-25T03:40:17.859Z,100453.05
2022-11-25T03:41:19.675Z,100456.50
2022-11-25T03:42:21.479Z,100459.91
2022-11-25T03:43:23.282Z,100455.50
2022-11-25T03:44:25.144Z,100459.77
2022-11-25T03:45:27.015Z,100459.72
2022-11-25T03:46:28.918Z,100452.80
2022-11-25T03:47:30.722Z,100455.43
2022-11-25T03:48:32.521Z,100453.72
2022-11-25T03:49:34.382Z,100451.13
2022-11-25T03:50:36.191Z,100457.16
2022-11-25T03:51:37.990Z,100457.98
2022-11-25T03:52:39.798Z,100460.55
2022-11-25T03:53:41.602Z,100450.97
2022-11-25T03:54:43.458Z,100451.81
2022-11-25T03:55:45.274Z,100452.75
2022-11-25T03:56:47.074Z,100459.66
2022-11-25T03:57:48.875Z,100453.66
2022-11-25T03:58:50.692Z,100457.16
2022-11-25T03:59:52.552Z,100462.41
2022-11-25T04:00:54.782Z,100457.29
2022-11-25T04:01:56.725Z,100452.11
2022-11-25T04:02:58.537Z,100453.80
2022-11-25T04:04:00.336Z,100460.75
2022-11-25T04:05:02.189Z,100456.42
2022-11-25T04:06:04.101Z,100448.66
2022-11-25T04:07:05.904Z,100456.48
2022-11-25T04:08:07.774Z,100453.03
2022-11-25T04:09:09.604Z,100453.89
2022-11-25T04:10:11.555Z,100453.91
2022-11-25T04:11:13.366Z,100454.80
2022-11-25T04:12:15.174Z,100453.92
2022-11-25T04:13:16.993Z,100453.92
2022-11-25T04:14:18.812Z,100449.66
2022-11-25T04:15:21.410Z,100453.95
2022-11-25T04:16:23.469Z,100456.50
2022-11-25T04:17:25.353Z,100454.77
2022-11-25T04:18:27.150Z,100460.79
2022-11-25T04:19:28.959Z,100465.94
2022-11-25T04:20:30.919Z,100471.96
2022-11-25T04:21:32.728Z,100465.94
2022-11-25T04:22:34.533Z,100471.14
2022-11-25T04:23:36.345Z,100478.95
2022-11-25T04:24:38.436Z,100472.00
2022-11-25T04:25:40.312Z,100472.00
2022-11-25T04:26:42.240Z,100474.59
2022-11-25T04:27:44.064Z,100478.97
2022-11-25T04:28:45.870Z,100482.38
2022-11-25T04:29:47.668Z,100477.19
2022-11-25T04:30:49.559Z,100479.78
2022-11-25T04:31:51.371Z,100482.38
2022-11-25T04:32:53.165Z,100484.97
2022-11-25T04:33:54.973Z,100480.66
2022-11-25T04:34:56.788Z,100478.02
2022-11-25T04:35:58.654Z,100486.64
2022-11-25T04:37:00.559Z,100483.13
2022-11-25T04:38:02.367Z,100485.72
2022-11-25T04:39:04.168Z,100489.21
2022-11-25T04:40:06.080Z,100485.80
2022-11-25T04:41:07.922Z,100489.25
2022-11-25T04:42:09.725Z,100489.28
2022-11-25T04:43:11.527Z,100488.44
2022-11-25T04:44:13.346Z,100481.54
2022-11-25T04:45:24.516Z,100489.36
2022-11-25T04:46:18.860Z,100493.67
2022-11-25T04:47:20.809Z,100493.63
2022-11-25T04:48:22.619Z,100484.05
2022-11-25T04:49:24.429Z,100499.59
2022-11-25T04:50:26.350Z,100491.83
2022-11-25T04:51:28.205Z,100498.81
2022-11-25T04:52:30.036Z,100501.41
2022-11-25T04:53:31.841Z,100497.08
2022-11-25T04:54:33.902Z,100493.63
2022-11-25T04:55:35.852Z,100489.28
2022-11-25T04:56:37.813Z,100482.31
2022-11-25T04:57:39.613Z,100484.02
2022-11-25T04:58:41.424Z,100484.00
2022-11-25T04:59:43.207Z,100489.17
2022-11-25T05:00:45.006Z,100486.50
2022-11-25T05:01:46.947Z,100486.46
2022-11-25T05:02:48.961Z,100496.88
2022-11-25T05:03:55.977Z,100496.91
2022-11-25T05:04:54.384Z,100497.77
2022-11-25T05:05:56.206Z,100497.80
2022-11-25T05:06:58.421Z,100490.87
2022-11-25T05:08:00.244Z,100503.81
2022-11-25T05:09:02.047Z,100498.60
2022-11-25T05:10:03.838Z,100506.38
2022-11-25T05:11:05.812Z,100498.63
2022-11-25T05:12:07.687Z,100502.95
2022-11-25T05:13:09.508Z,100507.28
2022-11-25T05:14:11.330Z,100507.25
2022-11-25T05:15:13.137Z,100509.82
2022-11-25T05:16:14.962Z,100515.84
2022-11-25T05:17:16.793Z,100510.66
2022-11-25T05:18:18.782Z,100518.44
2022-11-25T05:19:20.581Z,100517.60
2022-11-25T05:20:22.470Z,100512.42
2022-11-25T05:21:24.175Z,100519.30
2022-11-25T05:22:26.042Z,100520.12
2022-11-25T05:23:30.338Z,100523.53
2022-11-25T05:24:32.183Z,100523.51
2022-11-25T05:25:33.984Z,100523.51
2022-11-25T05:26:35.889Z,100528.69
2022-11-25T05:27:37.730Z,100531.28
2022-11-25T05:28:39.527Z,100543.36
2022-11-25T05:29:41.309Z,100536.42
2022-11-25T05:30:43.235Z,100540.69
2022-11-25T05:31:45.002Z,100539.78
2022-11-25T05:32:46.857Z,100544.91
2022-11-25T05:33:48.696Z,100546.67
2022-11-25T05:34:50.505Z,100543.18
2022-11-25T05:35:52.350Z,100551.85
2022-11-25T05:36:54.432Z,100552.69
2022-11-25T05:37:56.389Z,100549.23
2022-11-25T05:38:58.201Z,100548.27
2022-11-25T05:40:00.019Z,100549.94
2022-11-25T05:41:01.818Z,100544.70
2022-11-25T05:42:03.607Z,100551.63
2022-11-25T05:43:05.461Z,100547.25
2022-11-25T05:44:07.279Z,100550.67
2022-11-25T05:45:09.118Z,100542.01
2022-11-25T05:46:11.234Z,100552.37
2022-11-25T05:47:13.036Z,100537.63
2022-11-25T05:48:14.901Z,100543.66
2022-11-25T05:49:16.757Z,100547.11
2022-11-25T05:50:18.659Z,100546.22
2022-11-25T05:51:20.461Z,100549.67
2022-11-25T05:52:22.252Z,100551.40
2022-11-25T05:53:24.162Z,100548.81
2022-11-25T05:54:25.959Z,100548.81
2022-11-25T05:55:29.567Z,100553.10
2022-11-25T05:56:31.710Z,100553.08
2022-11-25T05:57:33.521Z,100549.59
2022-11-25T05:58:35.368Z,100543.48
2022-11-25T05:59:37.155Z,100546.95
2022-11-25T06:00:39.285Z,100552.13
2022-11-25T06:01:41.092Z,100548.64
2022-11-25T06:02:43.017Z,100547.81
2022-11-25T06:03:45.073Z,100551.27
2022-11-25T06:04:46.967Z,100556.45
2022-11-25T06:05:48.790Z,100556.47
2022-11-25T06:06:50.727Z,100559.96
2022-11-25T06:07:52.640Z,100563.47
2022-11-25T06:08:54.498Z,100561.77
2022-11-25T06:10:01.526Z,100559.17
2022-11-25T06:10:59.891Z,100566.14
2022-11-25T06:12:01.695Z,100564.49
2022-11-25T06:13:03.571Z,100558.45
2022-11-25T06:14:05.411Z,100561.06
2022-11-25T06:15:07.228Z,100564.52
2022-11-25T06:16:09.091Z,100574.97
2022-11-25T06:17:10.940Z,100579.31
2022-11-25T06:18:12.772Z,100569.84
2022-11-25T06:19:14.686Z,100581.96
2022-11-25T06:20:16.711Z,100577.65
2022-11-25T06:21:21.015Z,100575.05
2022-11-25T06:22:22.835Z,100579.34
2022-11-25T06:23:24.671Z,100575.89
2022-11-25T06:24:26.523Z,100578.48
2022-11-25T06:25:28.344Z,100576.78
2022-11-25T06:26:30.270Z,100579.39
2022-11-25T06:27:56.978Z,100581.96
2022-11-25T06:28:35.752Z,100569.03
2022-11-25T06:29:37.623Z,100567.33
2022-11-25T06:30:39.523Z,100568.16
2022-11-25T06:31:41.334Z,100566.41
2022-11-25T06:32:43.248Z,100568.98
2022-11-25T06:33:45.053Z,100569.88
2022-11-25T06:34:46.910Z,100578.51
2022-11-25T06:35:48.797Z,100573.34
2022-11-25T06:36:50.701Z,100570.76
2022-11-25T06:37:52.529Z,100571.59
2022-11-25T06:38:54.331Z,100577.67
2022-11-25T06:39:56.208Z,100571.59
2022-11-25T06:41:00.416Z,100583.72
2022-11-25T06:42:01.850Z,100574.16
2022-11-25T06:43:05.917Z,100572.44
2022-11-25T06:44:07.763Z,100578.48
2022-11-25T06:45:09.623Z,100574.13
2022-11-25T06:46:11.591Z,100577.59
2022-11-25T06:47:13.454Z,100573.27
2022-11-25T06:48:15.287Z,100578.48
2022-11-25T06:49:17.099Z,100579.29
2022-11-25T06:50:19.068Z,100577.59
2022-11-25T06:51:21.021Z,100576.70
2022-11-25T06:52:22.802Z,100576.67
2022-11-25T06:53:24.628Z,100568.92
2022-11-25T06:54:26.427Z,100574.11
2022-11-25T06:55:28.275Z,100577.59
2022-11-25T06:56:30.200Z,100577.62
2022-11-25T06:57:31.985Z,100569.00
2022-11-25T06:58:36.420Z,100574.16
2022-11-25T06:59:37.451Z,100573.30
2022-11-25T07:00:39.329Z,100577.62
2022-11-25T07:01:41.235Z,100577.62
2022-11-25T07:02:48.005Z,100578.45
2022-11-25T07:03:46.715Z,100575.86
2022-11-25T07:04:48.460Z,100583.66
2022-11-25T07:05:50.323Z,100579.34
2022-11-25T07:06:52.281Z,100586.31
2022-11-25T07:07:54.263Z,100577.70
2022-11-25T07:08:56.155Z,100579.39
2022-11-25T07:09:57.998Z,100581.16
2022-11-25T07:10:59.953Z,100581.98
2022-11-25T07:12:01.751Z,100587.17
2022-11-25T07:13:03.577Z,100583.69
2022-11-25T07:14:05.461Z,100578.48
2022-11-25T07:15:07.263Z,100584.55
2022-11-25T07:16:09.256Z,100586.31
2022-11-25T07:17:12.372Z,100584.61
2022-11-25T07:18:14.335Z,100583.75
2022-11-25T07:19:16.155Z,100583.77
2022-11-25T07:20:18.189Z,100581.20
2022-11-25T07:21:20.029Z,100584.66
2022-11-25T07:22:21.910Z,100575.21
2022-11-25T07:23:23.728Z,100583.88
2022-11-25T07:24:25.542Z,100583.88
2022-11-25T07:25:30.661Z,100579.53
2022-11-25T07:26:31.112Z,100579.55
2022-11-25T07:27:32.951Z,100580.42
2022-11-25T07:28:34.759Z,100587.30
2022-11-25T07:29:57.919Z,100586.41
2022-11-25T07:31:22.767Z,100582.06
2022-11-25T07:31:43.999Z,100591.58
2022-11-25T07:32:46.883Z,100589.79
2022-11-25T07:33:48.972Z,100592.38
2022-11-25T07:34:50.773Z,100602.78
2022-11-25T07:35:52.593Z,100588.06
2022-11-25T07:36:54.662Z,100595.84
2022-11-25T07:37:56.535Z,100606.22
2022-11-25T07:38:58.347Z,100611.45
2022-11-25T07:40:00.171Z,100604.54
2022-11-25T07:41:01.963Z,100605.40
2022-11-25T07:42:03.832Z,100605.43
2022-11-25T07:43:05.639Z,100621.91
2022-11-25T07:44:07.434Z,100619.36
2022-11-25T07:45:09.244Z,100619.31
2022-11-25T07:46:11.285Z,100608.97
2022-11-25T07:47:13.109Z,100605.48
2022-11-25T07:48:14.923Z,100609.80
2022-11-25T07:49:17.747Z,100621.93
2022-11-25T07:50:19.582Z,100620.17
2022-11-25T07:51:21.379Z,100614.16
2022-11-25T07:52:23.249Z,100610.64
2022-11-25T07:53:25.120Z,100620.09
2022-11-25T07:54:26.954Z,100622.69
2022-11-25T07:55:28.756Z,100615.72
2022-11-25T07:56:30.660Z,100625.22
2022-11-25T07:57:32.535Z,100624.39
2022-11-25T07:58:34.350Z,100621.77
2022-11-25T07:59:36.338Z,100619.17
2022-11-25T08:00:38.369Z,100626.06
2022-11-25T08:01:40.220Z,100623.44
2022-11-25T08:02:42.102Z,100626.03
2022-11-25T08:03:43.948Z,100623.44
2022-11-25T08:04:45.746Z,100622.60
2022-11-25T08:05:47.567Z,100616.58
2022-11-25T08:06:49.579Z,100620.91
2022-11-25T08:07:52.005Z,100617.47
2022-11-25T08:08:53.877Z,100628.70
2022-11-25T08:09:55.680Z,100627.84
2022-11-25T08:10:57.601Z,100629.60
2022-11-25T08:11:59.418Z,100628.73
2022-11-25T08:13:01.268Z,100625.30
2022-11-25T08:14:03.088Z,100617.50
2022-11-25T08:15:04.897Z,100617.50
2022-11-25T08:16:06.948Z,100635.73
2022-11-25T08:17:08.806Z,100635.76
2022-11-25T08:18:10.648Z,100638.34
2022-11-25T08:19:12.464Z,100633.16
2022-11-25T08:20:14.400Z,100637.55
2022-11-25T08:21:16.209Z,100638.43
2022-11-25T08:22:18.021Z,100639.35
2022-11-25T08:23:19.882Z,100642.89
2022-11-25T08:24:21.865Z,100637.73
2022-11-25T08:25:23.664Z,100637.73
2022-11-25T08:26:25.576Z,100644.67
2022-11-25T08:27:27.384Z,100650.75
2022-11-25T08:28:29.254Z,100650.75
2022-11-25T08:29:31.088Z,100644.70
2022-11-25T08:30:32.996Z,100649.89
2022-11-25T08:31:34.850Z,100640.34
2022-11-25T08:32:36.719Z,100640.41
2022-11-25T08:33:38.557Z,100647.34
2022-11-25T08:34:40.391Z,100642.16
2022-11-25T08:35:42.161Z,100639.59
2022-11-25T08:36:48.245Z,100636.08
2022-11-25T08:37:48.845Z,100641.29
2022-11-25T08:38:50.791Z,100638.72
2022-11-25T08:39:54.104Z,100637.05
2022-11-25T08:40:56.222Z,100635.31
2022-11-25T08:41:58.035Z,100644.02
2022-11-25T08:42:59.966Z,100643.13
2022-11-25T08:44:01.836Z,100643.16
2022-11-25T08:45:03.640Z,100638.86
2022-11-25T08:46:05.969Z,100641.45
2022-11-25T08:47:08.965Z,100639.72
2022-11-25T08:48:10.802Z,100637.99
2022-11-25T08:49:12.672Z,100644.05
2022-11-25T08:50:14.477Z,100637.10
2022-11-25T08:51:16.277Z,100637.94
2022-11-25T08:52:18.106Z,100638.02
2022-11-25T08:53:19.928Z,100637.13
2022-11-25T08:54:21.761Z,100637.13
2022-11-25T08:55:23.585Z,100630.20
2022-11-25T08:56:26.403Z,100637.13
2022-11-25T08:57:28.434Z,100640.56
2022-11-25T08:58:30.241Z,100640.53
2022-11-25T08:59:32.105Z,100634.51
2022-11-25T09:00:34.031Z,100642.29
2022-11-25T09:01:36.037Z,100634.56
2022-11-25T09:02:37.941Z,100638.02
2022-11-25T09:03:39.729Z,100635.42
2022-11-25T09:04:41.589Z,100631.97
2022-11-25T09:05:43.417Z,100628.51
2022-11-25T09:06:45.419Z,100643.25
2022-11-25T09:07:48.324Z,100631.16
2022-11-25T09:08:50.139Z,100631.98
2022-11-25T09:09:51.992Z,100639.77
2022-11-25T09:10:54.243Z,100631.16
2022-11-25T09:11:56.125Z,100631.17
2022-11-25T09:12:57.919Z,100626.85
2022-11-25T09:13:59.811Z,100632.06
2022-11-25T09:15:01.732Z,100626.06
2022-11-25T09:16:03.731Z,100626.95
2022-11-25T09:17:05.557Z,100630.45
2022-11-25T09:18:07.383Z,100630.50
2022-11-25T09:19:09.202Z,100634.00
2022-11-25T09:20:11.122Z,100632.23
2022-11-25T09:21:12.924Z,100633.97
2022-11-25T09:22:14.736Z,100634.78
2022-11-25T09:23:16.547Z,100634.78
2022-11-25T09:24:18.378Z,100624.33
2022-11-25T09:25:20.210Z,100623.47
2022-11-25T09:26:22.273Z,100626.92
2022-11-25T09:27:24.090Z,100626.95
2022-11-25T09:28:28.142Z,100622.65
2022-11-25T09:29:29.984Z,100616.63
2022-11-25T09:30:31.966Z,100626.16
2022-11-25T09:31:33.969Z,100624.45
2022-11-25T09:32:35.777Z,100620.10
2022-11-25T09:33:37.600Z,100614.91
2022-11-25T09:34:39.517Z,100610.59
2022-11-25T09:35:41.441Z,100625.30
2022-11-25T09:36:43.361Z,100615.78
2022-11-25T09:37:45.175Z,100624.43
2022-11-25T09:38:47.004Z,100620.13
2022-11-25T09:39:48.800Z,100608.88
2022-11-25T09:40:51.633Z,100614.09
2022-11-25T09:41:53.729Z,100607.17
2022-11-25T09:42:55.502Z,100613.31
2022-11-25T09:43:57.291Z,100613.36
2022-11-25T09:44:59.104Z,100612.55
2022-11-25T09:46:00.997Z,100611.67
2022-11-25T09:47:02.857Z,100607.38
2022-11-25T09:48:04.686Z,100616.91
2022-11-25T09:49:06.509Z,100616.09
2022-11-25T09:50:09.040Z,100614.36
2022-11-25T09:51:10.897Z,100612.64
2022-11-25T09:52:12.675Z,100604.86
2022-11-25T09:53:14.519Z,100605.72
2022-11-25T09:54:16.325Z,100611.77
2022-11-25T09:55:18.132Z,100606.60
2022-11-25T09:56:20.408Z,100603.17
2022-11-25T09:57:22.299Z,100605.78
2022-11-25T09:58:24.093Z,100603.21
2022-11-25T09:59:25.908Z,100608.45
2022-11-25T10:00:27.729Z,100603.23
2022-11-25T10:01:29.576Z,100604.09
2022-11-25T10:02:31.584Z,100600.68
2022-11-25T10:03:33.662Z,100602.41
2022-11-25T10:04:36.030Z,100602.41
2022-11-25T10:05:37.868Z,100607.61
2022-11-25T10:06:39.856Z,100605.84
2022-11-25T10:07:41.735Z,100606.69
2022-11-25T10:08:43.542Z,100598.91
2022-11-25T10:09:45.364Z,100603.27
2022-11-25T10:10:47.276Z,100600.68
2022-11-25T10:11:49.173Z,100605.03
2022-11-25T10:12:51.030Z,100606.78
2022-11-25T10:13:52.834Z,100604.19
2022-11-25T10:14:54.750Z,100601.59
2022-11-25T10:15:56.570Z,100600.70
2022-11-25T10:16:58.566Z,100608.48
2022-11-25T10:18:00.353Z,100606.78
2022-11-25T10:19:02.191Z,100604.19
2022-11-25T10:20:04.117Z,100605.08
2022-11-25T10:21:05.921Z,100595.52
2022-11-25T10:22:07.747Z,100602.41
2022-11-25T10:23:09.558Z,100598.06
2022-11-25T10:24:11.383Z,100598.95
2022-11-25T10:25:13.194Z,100592.94
2022-11-25T10:26:15.001Z,100610.29
2022-11-25T10:27:16.867Z,100612.86
2022-11-25T10:28:18.725Z,100602.50
2022-11-25T10:29:20.549Z,100605.09
2022-11-25T10:30:22.359Z,100601.64
2022-11-25T10:31:24.237Z,100602.50
2022-11-25T10:32:26.142Z,100601.69
2022-11-25T10:33:27.957Z,100601.69
2022-11-25T10:34:29.790Z,100597.34
2022-11-25T10:35:31.596Z,100602.56
2022-11-25T10:36:33.513Z,100599.98
2022-11-25T10:37:35.394Z,100599.15
2022-11-25T10:38:37.209Z,100593.95
2022-11-25T10:39:39.038Z,100596.58
2022-11-25T10:40:40.951Z,100597.45
2022-11-25T10:41:42.794Z,100595.72
2022-11-25T10:42:44.640Z,100591.41
2022-11-25T10:43:46.509Z,100597.45
2022-11-25T10:44:48.338Z,100593.13
2022-11-25T10:45:50.126Z,100587.09
2022-11-25T10:47:12.930Z,100594.90
2022-11-25T10:47:55.745Z,100598.36
2022-11-25T10:48:57.601Z,100592.32
2022-11-25T10:49:59.415Z,100597.52
2022-11-25T10:51:01.346Z,100594.04
2022-11-25T10:52:03.166Z,100588.83
2022-11-25T10:53:05.029Z,100589.69
2022-11-25T10:54:06.819Z,100594.86
2022-11-25T10:55:08.645Z,100595.70
2022-11-25T10:56:10.650Z,100594.81
2022-11-25T10:57:12.453Z,100602.61
2022-11-25T10:58:14.327Z,100597.44
2022-11-25T10:59:16.257Z,100600.05
2022-11-25T11:00:19.349Z,100599.21
2022-11-25T11:01:22.218Z,100594.88
2022-11-25T11:02:24.218Z,100602.67
2022-11-25T11:03:26.221Z,100602.64
2022-11-25T11:04:28.129Z,100606.98
2022-11-25T11:05:29.950Z,100600.01
2022-11-25T11:06:31.862Z,100600.01
2022-11-25T11:07:33.767Z,100606.06
2022-11-25T11:08:35.669Z,100611.28
2022-11-25T11:09:37.522Z,100600.91
2022-11-25T11:10:39.757Z,100609.64
2022-11-25T11:11:41.751Z,100601.84
2022-11-25T11:12:43.598Z,100607.91
2022-11-25T11:13:45.418Z,100607.86
2022-11-25T11:14:47.293Z,100599.19
2022-11-25T11:15:49.149Z,100599.19
2022-11-25T11:16:51.289Z,100607.84
2022-11-25T11:17:53.079Z,100607.84
2022-11-25T11:18:54.882Z,100600.03
2022-11-25T11:19:56.861Z,100604.36
2022-11-25T11:20:58.781Z,100615.61
2022-11-25T11:22:00.561Z,100605.19
2022-11-25T11:23:08.343Z,100601.72
2022-11-25T11:24:06.015Z,100602.59
2022-11-25T11:25:07.897Z,100602.61
2022-11-25T11:26:09.863Z,100605.22
2022-11-25T11:27:11.624Z,100607.00
2022-11-25T11:28:13.432Z,100600.91
2022-11-25T11:29:15.244Z,100599.23
2022-11-25T11:30:17.184Z,100605.31
2022-11-25T11:31:19.164Z,100601.87
2022-11-25T11:32:21.040Z,100606.20
2022-11-25T11:33:22.893Z,100599.23
2022-11-25T11:34:24.700Z,100605.28
2022-11-25T11:35:26.576Z,100607.91
2022-11-25T11:36:28.506Z,100613.12
2022-11-25T11:37:30.323Z,100606.24
2022-11-25T11:38:32.149Z,100603.64
2022-11-25T11:39:33.992Z,100608.82
2022-11-25T11:40:35.966Z,100600.11
2022-11-25T11:41:37.795Z,100605.31
2022-11-25T11:42:39.589Z,100607.02
2022-11-25T11:43:41.407Z,100605.24
2022-11-25T11:44:43.219Z,100624.26
2022-11-25T11:45:45.164Z,100608.62
2022-11-25T11:46:47.047Z,100614.64
2022-11-25T11:47:48.983Z,100614.59